KHGR/HGR METAR and TAF weather

Enter ICAO airport designator
Station Type Date Time Source
KHGR METAR 2019/10/23 07:53 UTC NOAA

KHGR 230753Z AUTO 24006KT 10SM CLR 10/09 A2990 RMK AO2 SLP137 T01000089


Station Type Date Time Source
KHGR Decoded METAR 2019/10/23 07:53 UTC NOAA

HAGERSTOWN REGIONAL AIRPORT, MD, United States (KHGR) 39-42N 077-44W 224M
Oct 23, 2019 - 03:53 AM EDT / 2019.10.23 0753 UTC
Wind: from the WSW (240 degrees) at 7 MPH (6 KT):0
Visibility: 10 mile(s):0
Sky conditions: clear
Temperature: 50.0 F (10.0 C)
Dew Point: 48.0 F (8.9 C)
Relative Humidity: 92%
Pressure (altimeter): 29.9 in. Hg (1012 hPa)
ob: KHGR 230753Z AUTO 24006KT 10SM CLR 10/09 A2990 RMK AO2 SLP137 T01000089
cycle: 8

Station Type Date Time Source
KHGR TAF UTC NOAA

Error!

Example: see airport list